Bois-Des-Filion, Canada
Current Conditions -  °F | °C
As of 3:00 PM on Monday 26 Jan 2015 (Local Time) from CYUL Reporting Station
Broken Clouds Broken Clouds  
Wind Chill: -15°   Ceiling: 22000
Heat Index:   Visibility: 15mi
Dew Point: -8°   Wind: 18mph
Humidity: 56%   Direction: 40°NE
Pressure: 30.18"   Gusts: NA
Location:  45.65°N, 73.77°W
Report Text: CYUL 262000Z 04016KT 15SM FEW150 BKN220 M15/M22 A3018 RMK AC1CI5 SLP224
Loading
Personal Weather Stations






























Interactive Weather Map New forecast layout! Learn more

10-Day Weather Forecast

Advertisements
Track Severe Weather on mobile